createdAt,value
2023-05-11T00:00:19.286Z,47.29
2023-05-11T00:01:19.000Z,46.81
2023-05-11T00:02:19.076Z,44.09
2023-05-11T00:03:19.074Z,45.96
2023-05-11T00:04:19.021Z,49.76
2023-05-11T00:05:18.962Z,44.35
2023-05-11T00:06:18.960Z,40.56
2023-05-11T00:07:18.974Z,46.69
2023-05-11T00:08:18.932Z,41.27
2023-05-11T00:09:18.926Z,45.11
2023-05-11T00:10:19.032Z,44.16
2023-05-11T00:11:18.903Z,44.12
2023-05-11T00:12:18.910Z,47.66
2023-05-11T00:13:18.871Z,44.07
2023-05-11T00:14:18.875Z,43.92
2023-05-11T00:15:18.878Z,41.45
2023-05-11T00:16:18.923Z,45.49
2023-05-11T00:17:18.842Z,43.14
2023-05-11T00:18:18.861Z,42.21
2023-05-11T00:19:18.813Z,44.14
2023-05-11T00:20:19.252Z,46.59
2023-05-11T00:21:18.791Z,42.47
2023-05-11T00:22:18.805Z,40.24
2023-05-11T00:23:18.749Z,42.36
2023-05-11T00:24:18.750Z,42.81
2023-05-11T00:25:18.770Z,40.86
2023-05-11T00:26:18.734Z,47.84
2023-05-11T00:27:18.744Z,44.45
2023-05-11T00:28:18.715Z,44.71
2023-05-11T00:29:18.684Z,42.78
2023-05-11T00:30:18.826Z,40.35
2023-05-11T00:31:18.714Z,40.44
2023-05-11T00:32:18.678Z,48.63
2023-05-11T00:33:18.688Z,47.82
2023-05-11T00:34:18.635Z,49.35
2023-05-11T00:35:18.648Z,49.33
2023-05-11T00:36:18.634Z,40.45
2023-05-11T00:37:18.620Z,43.31
2023-05-11T00:38:18.588Z,44.40
2023-05-11T00:39:18.571Z,41.33
2023-05-11T00:40:18.712Z,40.51
2023-05-11T00:41:18.545Z,44.94
2023-05-11T00:42:18.544Z,44.66
2023-05-11T00:43:18.522Z,42.69
2023-05-11T00:44:18.549Z,43.37
2023-05-11T00:45:18.511Z,40.55
2023-05-11T00:46:18.555Z,40.27
2023-05-11T00:47:18.489Z,40.19
2023-05-11T00:48:18.467Z,45.15
2023-05-11T00:49:19.452Z,41.23
2023-05-11T00:50:18.666Z,41.35
2023-05-11T00:51:18.447Z,45.51
2023-05-11T00:52:18.425Z,46.02
2023-05-11T00:53:18.433Z,49.42
2023-05-11T00:54:18.397Z,46.34
2023-05-11T00:55:18.405Z,46.49
2023-05-11T00:56:18.374Z,44.34
2023-05-11T00:57:18.381Z,43.11
2023-05-11T00:58:18.358Z,45.49
2023-05-11T00:59:18.357Z,43.25
2023-05-11T01:00:18.669Z,48.12
2023-05-11T01:01:18.417Z,47.52
2023-05-11T01:02:18.393Z,43.89
2023-05-11T01:03:18.381Z,44.11
2023-05-11T01:04:18.289Z,45.08
2023-05-11T01:05:18.281Z,46.39
2023-05-11T01:06:19.293Z,50.53
2023-05-11T01:07:18.262Z,55.67
2023-05-11T01:08:18.269Z,44.56
2023-05-11T01:09:18.231Z,42.90
2023-05-11T01:10:18.371Z,54.70
2023-05-11T01:11:18.249Z,45.03
2023-05-11T01:12:18.209Z,45.80
2023-05-11T01:13:18.189Z,40.47
2023-05-11T01:14:18.203Z,49.10
2023-05-11T01:15:18.188Z,44.41
2023-05-11T01:16:18.187Z,41.67
2023-05-11T01:17:18.139Z,46.89
2023-05-11T01:18:18.225Z,46.19
2023-05-11T01:19:18.148Z,45.47
2023-05-11T01:20:18.326Z,40.37
2023-05-11T01:21:18.097Z,41.90
2023-05-11T01:22:18.081Z,44.52
2023-05-11T01:23:18.099Z,44.97
2023-05-11T01:24:18.080Z,46.30
2023-05-11T01:25:18.057Z,44.65
2023-05-11T01:26:18.080Z,49.82
2023-05-11T01:27:18.062Z,49.44
2023-05-11T01:28:18.043Z,48.50
2023-05-11T01:29:18.008Z,46.37
2023-05-11T01:30:18.241Z,43.75
2023-05-11T01:31:18.013Z,49.32
2023-05-11T01:32:17.971Z,48.93
2023-05-11T01:33:18.026Z,44.20
2023-05-11T01:34:17.999Z,45.33
2023-05-11T01:35:17.939Z,46.42
2023-05-11T01:36:17.920Z,45.95
2023-05-11T01:37:17.924Z,43.43
2023-05-11T01:38:17.916Z,45.15
2023-05-11T01:39:17.882Z,48.39
2023-05-11T01:40:18.160Z,46.12
2023-05-11T01:41:17.899Z,44.87
2023-05-11T01:42:17.875Z,45.16
2023-05-11T01:43:17.832Z,47.43
2023-05-11T01:44:17.858Z,44.25
2023-05-11T01:45:17.836Z,44.93
2023-05-11T01:46:17.887Z,46.34
2023-05-11T01:47:18.820Z,40.95
2023-05-11T01:48:17.798Z,41.65
2023-05-11T01:49:17.780Z,48.94
2023-05-11T01:50:18.028Z,40.75
2023-05-11T01:51:17.775Z,49.19
2023-05-11T01:52:17.760Z,46.35
2023-05-11T01:53:17.751Z,41.40
2023-05-11T01:54:17.732Z,45.48
2023-05-11T01:55:17.741Z,50.39
2023-05-11T01:56:17.752Z,44.79
2023-05-11T01:57:17.711Z,45.08
2023-05-11T01:58:17.678Z,46.24
2023-05-11T01:59:17.699Z,49.60
2023-05-11T02:00:17.895Z,43.81
2023-05-11T02:01:17.738Z,41.62
2023-05-11T02:02:17.691Z,42.34
2023-05-11T02:03:50.357Z,46.55
2023-05-11T02:04:17.668Z,43.23
2023-05-11T02:05:17.646Z,42.92
2023-05-11T02:06:17.633Z,46.83
2023-05-11T02:07:17.607Z,43.58
2023-05-11T02:08:18.643Z,46.47
2023-05-11T02:09:17.593Z,49.57
2023-05-11T02:10:17.812Z,49.20
2023-05-11T02:11:17.553Z,50.36
2023-05-11T02:12:17.529Z,49.94
2023-05-11T02:13:17.519Z,47.08
2023-05-11T02:14:17.496Z,48.99
2023-05-11T02:15:17.537Z,44.65
2023-05-11T02:16:17.560Z,44.62
2023-05-11T02:17:17.529Z,46.01
2023-05-11T02:18:17.489Z,45.98
2023-05-11T02:19:17.526Z,44.42
2023-05-11T02:20:17.611Z,53.85
2023-05-11T02:21:17.408Z,45.33
2023-05-11T02:22:17.497Z,41.34
2023-05-11T02:23:17.428Z,52.58
2023-05-11T02:24:17.385Z,51.35
2023-05-11T02:25:17.402Z,46.39
2023-05-11T02:26:17.415Z,52.72
2023-05-11T02:27:17.351Z,49.64
2023-05-11T02:28:17.348Z,46.11
2023-05-11T02:29:17.387Z,47.86
2023-05-11T02:30:17.678Z,44.96
2023-05-11T02:31:17.336Z,42.90
2023-05-11T02:32:17.350Z,50.34
2023-05-11T02:33:17.284Z,47.37
2023-05-11T02:34:17.322Z,50.53
2023-05-11T02:35:17.281Z,51.31
2023-05-11T02:36:18.265Z,44.75
2023-05-11T02:37:17.239Z,42.91
2023-05-11T02:38:17.221Z,46.79
2023-05-11T02:39:17.260Z,54.54
2023-05-11T02:40:17.486Z,49.96
2023-05-11T02:41:17.240Z,44.22
2023-05-11T02:42:17.234Z,45.77
2023-05-11T02:43:17.183Z,47.53
2023-05-11T02:44:17.211Z,49.77
2023-05-11T02:45:17.172Z,52.15
2023-05-11T02:46:17.228Z,48.55
2023-05-11T02:47:17.155Z,48.80
2023-05-11T02:48:17.234Z,49.88
2023-05-11T02:49:17.142Z,54.18
2023-05-11T02:50:17.288Z,51.06
2023-05-11T02:51:18.070Z,51.40
2023-05-11T02:52:17.081Z,49.70
2023-05-11T02:53:17.095Z,51.50
2023-05-11T02:54:17.050Z,54.22
2023-05-11T02:55:17.022Z,53.44
2023-05-11T02:56:17.058Z,50.50
2023-05-11T02:57:17.026Z,48.54
2023-05-11T02:58:17.109Z,49.73
2023-05-11T02:59:16.999Z,52.69
2023-05-11T03:00:17.295Z,54.94
2023-05-11T03:01:17.000Z,55.72
2023-05-11T03:02:17.068Z,49.17
2023-05-11T03:03:17.058Z,55.51
2023-05-11T03:04:16.935Z,53.54
2023-05-11T03:05:17.022Z,51.54
2023-05-11T03:06:16.946Z,49.13
2023-05-11T03:07:16.888Z,49.87
2023-05-11T03:08:16.920Z,49.66
2023-05-11T03:09:16.889Z,53.00
2023-05-11T03:10:17.102Z,51.35
2023-05-11T03:11:16.845Z,52.79
2023-05-11T03:12:16.877Z,52.37
2023-05-11T03:13:16.887Z,51.26
2023-05-11T03:14:16.818Z,55.68
2023-05-11T03:15:16.867Z,52.82
2023-05-11T03:16:17.923Z,56.23
2023-05-11T03:17:16.814Z,53.90
2023-05-11T03:18:16.801Z,53.25
2023-05-11T03:19:16.844Z,50.52
2023-05-11T03:20:17.104Z,54.18
2023-05-11T03:21:16.783Z,55.83
2023-05-11T03:22:16.740Z,56.24
2023-05-11T03:23:16.745Z,56.00
2023-05-11T03:24:16.716Z,53.82
2023-05-11T03:25:16.713Z,55.19
2023-05-11T03:26:16.696Z,53.90
2023-05-11T03:27:16.678Z,54.40
2023-05-11T03:28:16.704Z,50.76
2023-05-11T03:29:16.669Z,57.55
2023-05-11T03:30:16.808Z,54.62
2023-05-11T03:31:16.679Z,54.79
2023-05-11T03:32:17.755Z,56.40
2023-05-11T03:33:16.600Z,55.79
2023-05-11T03:34:16.602Z,55.94
2023-05-11T03:35:16.619Z,56.94
2023-05-11T03:36:16.622Z,56.25
2023-05-11T03:37:16.605Z,56.95
2023-05-11T03:38:16.558Z,55.01
2023-05-11T03:39:16.549Z,54.43
2023-05-11T03:40:16.786Z,56.73
2023-05-11T03:41:16.541Z,56.22
2023-05-11T03:42:16.552Z,55.04
2023-05-11T03:43:16.476Z,54.42
2023-05-11T03:44:16.490Z,56.75
2023-05-11T03:45:16.493Z,59.08
2023-05-11T03:46:16.518Z,53.77
2023-05-11T03:47:16.474Z,57.26
2023-05-11T03:48:16.457Z,56.49
2023-05-11T03:49:16.409Z,57.75
2023-05-11T03:50:16.568Z,55.77
2023-05-11T03:51:16.444Z,58.03
2023-05-11T03:52:16.400Z,56.29
2023-05-11T03:53:16.377Z,55.55
2023-05-11T03:54:16.377Z,56.27
2023-05-11T03:55:16.375Z,55.72
2023-05-11T03:56:16.375Z,55.71
2023-05-11T03:57:16.339Z,56.91
2023-05-11T03:58:16.306Z,57.61
2023-05-11T03:59:16.334Z,51.70
2023-05-11T04:00:16.473Z,56.55
2023-05-11T04:01:16.307Z,54.68
2023-05-11T04:02:16.299Z,56.46
2023-05-11T04:03:16.390Z,59.97
2023-05-11T04:04:16.260Z,53.98
2023-05-11T04:05:16.255Z,58.66
2023-05-11T04:06:16.278Z,53.36
2023-05-11T04:07:16.211Z,56.60
2023-05-11T04:08:16.231Z,56.16
2023-05-11T04:09:16.192Z,56.20
2023-05-11T04:10:16.274Z,54.22
2023-05-11T04:11:16.177Z,59.13
2023-05-11T04:12:16.180Z,53.43
2023-05-11T04:13:16.137Z,55.99
2023-05-11T04:14:16.123Z,54.87
2023-05-11T04:15:16.177Z,57.38
2023-05-11T04:16:16.127Z,56.84
2023-05-11T04:17:16.139Z,58.86
2023-05-11T04:18:16.124Z,55.73
2023-05-11T04:19:16.058Z,59.32
2023-05-11T04:20:16.247Z,59.64
2023-05-11T04:21:16.087Z,56.82
2023-05-11T04:22:16.062Z,58.28
2023-05-11T04:23:16.022Z,54.36
2023-05-11T04:24:16.068Z,57.33
2023-05-11T04:25:16.020Z,55.80
2023-05-11T04:26:16.023Z,57.55
2023-05-11T04:27:16.002Z,59.33
2023-05-11T04:28:15.954Z,57.06
2023-05-11T04:29:15.964Z,55.87
2023-05-11T04:30:16.132Z,61.76
2023-05-11T04:31:16.063Z,56.93
2023-05-11T04:32:15.944Z,55.54
2023-05-11T04:33:15.916Z,57.71
2023-05-11T04:34:15.900Z,58.42
2023-05-11T04:35:15.893Z,60.04
2023-05-11T04:36:15.920Z,59.27
2023-05-11T04:37:15.856Z,62.17
2023-05-11T04:38:15.847Z,58.19
2023-05-11T04:39:15.884Z,60.21
2023-05-11T04:40:15.898Z,58.95
2023-05-11T04:41:15.831Z,59.97
2023-05-11T04:42:15.845Z,60.52
2023-05-11T04:43:15.765Z,58.07
2023-05-11T04:44:15.779Z,60.44
2023-05-11T04:45:15.817Z,56.51
2023-05-11T04:46:15.812Z,57.39
2023-05-11T04:47:15.743Z,58.77
2023-05-11T04:48:17.931Z,57.71
2023-05-11T04:49:15.769Z,60.49
2023-05-11T04:50:15.828Z,60.96
2023-05-11T04:51:15.733Z,58.53
2023-05-11T04:52:15.713Z,58.75
2023-05-11T04:53:15.670Z,63.22
2023-05-11T04:54:15.680Z,58.92
2023-05-11T04:55:15.695Z,57.37
2023-05-11T04:56:15.668Z,58.76
2023-05-11T04:57:15.623Z,60.52
2023-05-11T04:58:15.646Z,58.69
2023-05-11T04:59:15.637Z,60.89
2023-05-11T05:00:15.795Z,59.82
2023-05-11T05:01:15.624Z,58.19
2023-05-11T05:02:15.636Z,60.54
2023-05-11T05:03:15.658Z,60.25
2023-05-11T05:04:15.655Z,55.43
2023-05-11T05:05:15.569Z,59.35
2023-05-11T05:06:15.566Z,58.64
2023-05-11T05:07:15.497Z,59.90
2023-05-11T05:08:15.510Z,57.27
2023-05-11T05:09:15.558Z,60.60
2023-05-11T05:10:15.637Z,59.52
2023-05-11T05:11:15.478Z,59.79
2023-05-11T05:12:15.524Z,60.70
2023-05-11T05:13:15.445Z,60.25
2023-05-11T05:14:15.434Z,59.73
2023-05-11T05:15:15.519Z,58.54
2023-05-11T05:16:15.440Z,61.71
2023-05-11T05:17:15.445Z,59.21
2023-05-11T05:18:15.492Z,59.20
2023-05-11T05:19:15.403Z,61.36
2023-05-11T05:20:15.428Z,59.77
2023-05-11T05:21:15.400Z,61.00
2023-05-11T05:22:15.385Z,61.77
2023-05-11T05:23:15.364Z,59.16
2023-05-11T05:24:15.359Z,61.78
2023-05-11T05:25:15.342Z,63.25
2023-05-11T05:26:15.332Z,58.31
2023-05-11T05:27:15.350Z,61.55
2023-05-11T05:28:15.366Z,61.20
2023-05-11T05:29:15.313Z,60.35
2023-05-11T05:30:15.382Z,59.54
2023-05-11T05:31:15.244Z,57.91
2023-05-11T05:32:16.258Z,59.47
2023-05-11T05:33:15.282Z,60.45
2023-05-11T05:34:16.545Z,61.33
2023-05-11T05:35:16.208Z,58.86
2023-05-11T05:36:15.262Z,60.00
2023-05-11T05:37:15.179Z,60.23
2023-05-11T05:38:15.198Z,58.25
2023-05-11T05:39:15.191Z,59.13
2023-05-11T05:40:15.185Z,61.88
2023-05-11T05:41:15.130Z,61.28
2023-05-11T05:42:15.141Z,61.79
2023-05-11T05:43:15.143Z,61.09
2023-05-11T05:44:15.127Z,60.51
2023-05-11T05:45:15.146Z,59.73
2023-05-11T05:46:15.091Z,61.65
2023-05-11T05:47:15.057Z,61.51
2023-05-11T05:48:15.071Z,59.41
2023-05-11T05:49:15.087Z,58.61
2023-05-11T05:50:15.056Z,59.80
2023-05-11T05:51:15.030Z,57.95
2023-05-11T05:52:15.046Z,61.27
2023-05-11T05:53:14.992Z,63.23
2023-05-11T05:54:15.026Z,60.28
2023-05-11T05:55:14.993Z,59.46
2023-05-11T05:56:14.983Z,60.63
2023-05-11T05:57:15.803Z,61.04
2023-05-11T05:58:15.955Z,59.80
2023-05-11T05:59:14.990Z,59.51
2023-05-11T06:00:14.933Z,58.51
2023-05-11T06:01:14.893Z,61.11
2023-05-11T06:02:14.950Z,58.33
2023-05-11T06:03:14.984Z,63.98
2023-05-11T06:04:14.991Z,60.76
2023-05-11T06:05:14.873Z,59.14
2023-05-11T06:06:14.873Z,58.68
2023-05-11T06:07:14.878Z,58.37
2023-05-11T06:08:14.821Z,59.01
2023-05-11T06:09:14.876Z,58.41
2023-05-11T06:10:14.816Z,60.68
2023-05-11T06:11:14.777Z,62.58
2023-05-11T06:12:14.814Z,63.08
2023-05-11T06:13:14.808Z,59.87
2023-05-11T06:14:14.771Z,60.17
2023-05-11T06:15:14.766Z,60.27
2023-05-11T06:16:14.850Z,57.75
2023-05-11T06:17:14.716Z,62.22
2023-05-11T06:18:14.778Z,59.30
2023-05-11T06:19:14.709Z,58.37
2023-05-11T06:20:14.702Z,60.39
2023-05-11T06:21:14.673Z,57.94
2023-05-11T06:22:15.661Z,60.46
2023-05-11T06:23:14.706Z,60.14
2023-05-11T06:24:14.663Z,62.76
2023-05-11T06:25:14.648Z,60.10
2023-05-11T06:26:14.620Z,57.60
2023-05-11T06:27:17.363Z,58.84
2023-05-11T06:28:14.602Z,61.38
2023-05-11T06:29:14.604Z,57.75
2023-05-11T06:30:14.609Z,61.56
2023-05-11T06:31:14.555Z,58.89
2023-05-11T06:32:14.550Z,58.92
2023-05-11T06:33:14.623Z,61.25
2023-05-11T06:34:14.533Z,58.27
2023-05-11T06:35:14.504Z,59.19
2023-05-11T06:36:14.494Z,59.28
2023-05-11T06:37:14.523Z,61.41
2023-05-11T06:38:14.507Z,60.24
2023-05-11T06:39:14.472Z,58.03
2023-05-11T06:40:14.603Z,59.62
2023-05-11T06:41:14.507Z,57.56
2023-05-11T06:42:14.431Z,59.06
2023-05-11T06:43:14.442Z,61.01
2023-05-11T06:44:14.457Z,59.96
2023-05-11T06:45:14.459Z,61.55
2023-05-11T06:46:14.441Z,58.87
2023-05-11T06:47:14.429Z,61.90
2023-05-11T06:48:14.427Z,62.02
2023-05-11T06:49:14.381Z,59.79
2023-05-11T06:50:14.406Z,55.61
2023-05-11T06:51:14.309Z,58.79
2023-05-11T06:52:14.343Z,59.21
2023-05-11T06:53:14.428Z,57.51
2023-05-11T06:54:14.298Z,57.30
2023-05-11T06:55:14.298Z,60.91
2023-05-11T06:56:14.352Z,57.49
2023-05-11T06:57:14.616Z,58.59
2023-05-11T06:58:15.269Z,59.79
2023-05-11T06:59:14.251Z,59.78
2023-05-11T07:00:14.257Z,59.28
2023-05-11T07:01:14.252Z,58.39
2023-05-11T07:02:14.227Z,57.45
2023-05-11T07:03:14.319Z,58.18
2023-05-11T07:04:14.252Z,59.01
2023-05-11T07:05:14.211Z,57.35
2023-05-11T07:06:14.201Z,61.32
2023-05-11T07:07:14.188Z,57.15
2023-05-11T07:08:14.207Z,57.14
2023-05-11T07:09:14.135Z,57.88
2023-05-11T07:10:14.135Z,60.00
2023-05-11T07:11:14.093Z,59.24
2023-05-11T07:12:14.096Z,58.36
2023-05-11T07:13:14.244Z,58.29
2023-05-11T07:14:14.077Z,58.04
2023-05-11T07:15:14.062Z,59.50
2023-05-11T07:16:14.077Z,60.37
2023-05-11T07:17:14.123Z,63.21
2023-05-11T07:18:14.052Z,59.11
2023-05-11T07:19:14.064Z,55.96
2023-05-11T07:20:14.031Z,56.88
2023-05-11T07:21:13.992Z,60.16
2023-05-11T07:22:15.050Z,58.12
2023-05-11T07:23:14.991Z,58.33
2023-05-11T07:24:13.981Z,58.72
2023-05-11T07:25:13.937Z,56.56
2023-05-11T07:26:13.990Z,57.75
2023-05-11T07:27:13.959Z,61.93
2023-05-11T07:28:13.935Z,60.51
2023-05-11T07:29:13.946Z,56.99
2023-05-11T07:30:13.897Z,58.02
2023-05-11T07:31:13.898Z,58.96
2023-05-11T07:32:13.885Z,57.38
2023-05-11T07:33:13.858Z,59.08
2023-05-11T07:34:13.850Z,60.97
2023-05-11T07:35:13.802Z,59.76
2023-05-11T07:36:13.852Z,55.82
2023-05-11T07:37:13.812Z,57.37
2023-05-11T07:38:13.804Z,59.96
2023-05-11T07:39:13.819Z,59.60
2023-05-11T07:40:13.791Z,58.22
2023-05-11T07:41:13.754Z,59.48
2023-05-11T07:42:13.795Z,59.76
2023-05-11T07:43:13.763Z,58.09
2023-05-11T07:44:13.738Z,60.37
2023-05-11T07:45:13.754Z,60.64
2023-05-11T07:46:13.779Z,61.96
2023-05-11T07:47:13.696Z,60.49
2023-05-11T07:48:13.831Z,59.27
2023-05-11T07:49:19.005Z,58.67
2023-05-11T07:50:17.002Z,56.78
2023-05-11T07:51:13.659Z,58.58
2023-05-11T07:52:13.685Z,56.49
2023-05-11T07:53:13.640Z,60.90
2023-05-11T07:54:13.696Z,59.39
2023-05-11T07:55:13.660Z,58.11
2023-05-11T07:56:13.618Z,60.67
2023-05-11T07:57:13.575Z,59.74
2023-05-11T07:58:13.602Z,60.29
2023-05-11T07:59:13.591Z,57.45
2023-05-11T08:00:13.579Z,61.47
2023-05-11T08:01:13.597Z,59.53
2023-05-11T08:02:13.675Z,58.92
2023-05-11T08:03:13.558Z,55.76
2023-05-11T08:04:46.331Z,59.30
2023-05-11T08:05:13.511Z,62.41
2023-05-11T08:06:13.616Z,60.02
2023-05-11T08:07:13.485Z,59.27
2023-05-11T08:08:13.490Z,60.40
2023-05-11T08:09:13.494Z,60.28
2023-05-11T08:10:13.456Z,60.23
2023-05-11T08:11:13.459Z,60.41
2023-05-11T08:12:13.427Z,59.43
2023-05-11T08:13:13.417Z,59.69
2023-05-11T08:14:13.450Z,61.46
2023-05-11T08:15:13.412Z,72.17
2023-05-11T08:16:13.448Z,58.90
2023-05-11T08:17:13.423Z,56.69
2023-05-11T08:18:13.372Z,57.34
2023-05-11T08:19:13.358Z,58.69
2023-05-11T08:20:13.385Z,58.94
2023-05-11T08:21:13.341Z,59.15
2023-05-11T08:22:13.316Z,57.68
2023-05-11T08:23:13.324Z,58.91
2023-05-11T08:24:13.338Z,56.12
2023-05-11T08:25:13.294Z,56.46
2023-05-11T08:26:13.320Z,58.64
2023-05-11T08:27:13.298Z,59.18
2023-05-11T08:28:13.285Z,57.59
2023-05-11T08:29:13.246Z,55.91
2023-05-11T08:30:13.233Z,56.72
2023-05-11T08:31:13.307Z,57.21
2023-05-11T08:32:13.342Z,60.96
2023-05-11T08:33:33.878Z,59.65
2023-05-11T08:34:19.781Z,59.05
2023-05-11T08:35:15.225Z,55.34
2023-05-11T08:36:13.219Z,59.16
2023-05-11T08:37:13.159Z,60.03
2023-05-11T08:38:13.193Z,55.16
2023-05-11T08:39:13.173Z,61.41
2023-05-11T08:40:14.831Z,61.24
2023-05-11T08:41:14.109Z,62.67
2023-05-11T08:42:13.156Z,55.12
2023-05-11T08:43:13.118Z,57.66
2023-05-11T08:44:13.085Z,61.67
2023-05-11T08:45:13.085Z,59.69
2023-05-11T08:46:13.143Z,57.43
2023-05-11T08:47:21.844Z,60.02
2023-05-11T08:48:15.049Z,60.91
2023-05-11T08:49:13.017Z,57.98
2023-05-11T08:50:13.014Z,57.60
2023-05-11T08:51:13.042Z,57.33
2023-05-11T08:52:13.004Z,58.08
2023-05-11T08:53:12.970Z,58.37
2023-05-11T08:54:14.012Z,59.79
2023-05-11T08:55:12.987Z,58.63
2023-05-11T08:56:12.959Z,56.13
2023-05-11T08:57:12.955Z,56.35
2023-05-11T08:58:12.933Z,59.13
2023-05-11T08:59:12.926Z,58.46
2023-05-11T09:00:12.926Z,58.27
2023-05-11T09:01:12.909Z,61.69
2023-05-11T09:02:12.925Z,59.03
2023-05-11T09:03:12.949Z,59.24
2023-05-11T09:04:12.873Z,61.32
2023-05-11T09:05:12.901Z,60.65
2023-05-11T09:06:12.860Z,59.67
2023-05-11T09:07:12.822Z,57.46
2023-05-11T09:08:12.820Z,55.95
2023-05-11T09:09:12.819Z,58.32
2023-05-11T09:10:13.968Z,57.39
2023-05-11T09:11:13.831Z,58.65
2023-05-11T09:12:12.791Z,57.41
2023-05-11T09:13:12.815Z,55.33
2023-05-11T09:14:12.799Z,61.16
2023-05-11T09:15:12.758Z,59.07
2023-05-11T09:16:27.867Z,55.38
2023-05-11T09:17:14.841Z,56.61
2023-05-11T09:18:12.788Z,57.05
2023-05-11T09:19:12.696Z,60.14
2023-05-11T09:20:12.688Z,55.62
2023-05-11T09:21:12.767Z,61.09
2023-05-11T09:22:12.682Z,56.45
2023-05-11T09:23:12.661Z,58.18
2023-05-11T09:24:12.727Z,56.30
2023-05-11T09:25:12.702Z,60.17
2023-05-11T09:26:12.628Z,59.19
2023-05-11T09:27:12.625Z,61.48
2023-05-11T09:28:15.865Z,55.89
2023-05-11T09:29:13.586Z,63.10
2023-05-11T09:30:12.615Z,60.33
2023-05-11T09:31:12.691Z,56.04
2023-05-11T09:32:12.572Z,60.15
2023-05-11T09:33:12.551Z,58.72
2023-05-11T09:34:12.537Z,59.77
2023-05-11T09:35:12.572Z,59.26
2023-05-11T09:36:12.512Z,59.14
2023-05-11T09:37:12.512Z,59.30
2023-05-11T09:38:12.524Z,59.32
2023-05-11T09:39:15.902Z,61.27
2023-05-11T09:40:27.002Z,60.47
2023-05-11T09:41:14.470Z,56.58
2023-05-11T09:42:12.486Z,61.60
2023-05-11T09:43:12.467Z,58.71
2023-05-11T09:44:12.440Z,58.49
2023-05-11T09:45:12.420Z,61.63
2023-05-11T09:46:12.442Z,57.72
2023-05-11T09:47:12.425Z,60.08
2023-05-11T09:48:12.432Z,60.31
2023-05-11T09:49:12.377Z,59.92
2023-05-11T09:50:12.387Z,59.58
2023-05-11T09:51:12.368Z,58.47
2023-05-11T09:52:12.357Z,58.47
2023-05-11T09:53:12.345Z,58.90
2023-05-11T09:54:12.343Z,59.36
2023-05-11T09:55:12.311Z,58.42
2023-05-11T09:56:12.314Z,57.61
2023-05-11T09:57:12.318Z,58.08
2023-05-11T09:58:12.330Z,57.15
2023-05-11T09:59:12.269Z,58.87
2023-05-11T10:00:12.275Z,56.17
2023-05-11T10:01:12.297Z,57.04
2023-05-11T10:02:12.244Z,58.09
2023-05-11T10:03:12.267Z,58.53
2023-05-11T10:04:23.166Z,56.40
2023-05-11T10:05:14.221Z,57.84
2023-05-11T10:06:12.187Z,58.53
2023-05-11T10:07:12.201Z,56.18
2023-05-11T10:08:12.186Z,57.81
2023-05-11T10:09:12.174Z,61.33
2023-05-11T10:10:12.145Z,58.50
2023-05-11T10:11:12.125Z,60.37
2023-05-11T10:12:12.142Z,57.30
2023-05-11T10:13:12.123Z,58.29
2023-05-11T10:14:12.106Z,60.92
2023-05-11T10:15:12.086Z,57.07
2023-05-11T10:16:12.127Z,59.29
2023-05-11T10:17:12.104Z,58.69
2023-05-11T10:18:12.082Z,59.35
2023-05-11T10:19:12.087Z,58.49
2023-05-11T10:20:12.075Z,56.42
2023-05-11T10:21:12.050Z,61.89
2023-05-11T10:22:12.075Z,63.92
2023-05-11T10:23:12.014Z,59.85
2023-05-11T10:24:12.024Z,58.08
2023-05-11T10:25:12.009Z,61.16
2023-05-11T10:26:12.000Z,58.11
2023-05-11T10:27:11.987Z,61.51
2023-05-11T10:28:11.977Z,58.16
2023-05-11T10:29:11.952Z,56.44
2023-05-11T10:30:11.937Z,62.11
2023-05-11T10:31:12.008Z,58.47
2023-05-11T10:32:11.966Z,58.62
2023-05-11T10:33:11.955Z,57.45
2023-05-11T10:34:11.881Z,61.65
2023-05-11T10:35:12.224Z,60.48
2023-05-11T10:36:11.997Z,60.77
2023-05-11T10:37:11.913Z,56.54
2023-05-11T10:38:11.843Z,57.37
2023-05-11T10:39:11.880Z,56.96
2023-05-11T10:40:11.839Z,60.81
2023-05-11T10:41:11.821Z,59.05
2023-05-11T10:42:11.844Z,63.93
2023-05-11T10:43:11.804Z,58.46
2023-05-11T10:44:11.788Z,58.05
2023-05-11T10:45:11.795Z,59.76
2023-05-11T10:46:11.857Z,62.07
2023-05-11T10:47:11.766Z,60.36
2023-05-11T10:48:11.788Z,61.65
2023-05-11T10:49:11.736Z,64.00
2023-05-11T10:50:11.705Z,59.94
2023-05-11T10:51:11.749Z,61.75
2023-05-11T10:52:11.744Z,59.90
2023-05-11T10:53:11.698Z,60.19
2023-05-11T10:54:11.691Z,64.31
2023-05-11T10:55:11.659Z,61.83
2023-05-11T10:56:11.643Z,64.81
2023-05-11T10:57:11.652Z,63.90
2023-05-11T10:58:11.665Z,59.34
2023-05-11T10:59:11.634Z,61.97
2023-05-11T11:00:11.694Z,62.51
2023-05-11T11:01:11.754Z,63.19
2023-05-11T11:02:11.608Z,71.85
2023-05-11T11:03:11.565Z,72.25
2023-05-11T11:04:11.581Z,72.09
2023-05-11T11:05:11.577Z,73.15
2023-05-11T11:06:11.554Z,70.94
2023-05-11T11:07:11.555Z,73.59
2023-05-11T11:08:11.535Z,71.76
2023-05-11T11:09:11.523Z,74.75
2023-05-11T11:10:11.501Z,76.57
2023-05-11T11:11:11.542Z,81.66
2023-05-11T11:12:11.513Z,81.49
2023-05-11T11:13:11.492Z,84.16
2023-05-11T11:14:11.482Z,69.83
2023-05-11T11:15:11.434Z,66.68
2023-05-11T11:16:12.602Z,73.84
2023-05-11T11:17:11.505Z,68.38
2023-05-11T11:18:11.482Z,67.28
2023-05-11T11:19:11.457Z,65.41
2023-05-11T11:20:11.374Z,69.45
2023-05-11T11:21:11.395Z,68.35
2023-05-11T11:22:11.360Z,67.47
2023-05-11T11:23:11.355Z,62.99
2023-05-11T11:24:11.336Z,62.89
2023-05-11T11:25:11.354Z,70.37
2023-05-11T11:26:11.344Z,68.50
2023-05-11T11:27:11.325Z,69.00
2023-05-11T11:28:11.295Z,66.99
2023-05-11T11:29:11.312Z,63.92
2023-05-11T11:30:11.277Z,65.33
2023-05-11T11:31:11.288Z,63.77
2023-05-11T11:32:11.283Z,64.43
2023-05-11T11:33:11.288Z,65.56
2023-05-11T11:34:11.224Z,65.05
2023-05-11T11:35:11.239Z,66.22
2023-05-11T11:36:11.205Z,64.67
2023-05-11T11:37:11.222Z,65.01
2023-05-11T11:38:11.202Z,65.21
2023-05-11T11:39:11.172Z,63.72
2023-05-11T11:40:15.404Z,64.97
2023-05-11T11:41:12.155Z,64.96
2023-05-11T11:42:11.157Z,63.53
2023-05-11T11:43:11.145Z,63.19
2023-05-11T11:44:11.114Z,60.68
2023-05-11T11:45:11.114Z,63.82
2023-05-11T11:46:11.172Z,61.38
2023-05-11T11:47:11.100Z,61.45
2023-05-11T11:48:11.122Z,62.84
2023-05-11T11:49:11.071Z,63.61
2023-05-11T11:50:11.050Z,62.88
2023-05-11T11:51:11.081Z,62.75
2023-05-11T11:52:11.039Z,64.76
2023-05-11T11:53:11.024Z,61.90
2023-05-11T11:54:11.034Z,63.85
2023-05-11T11:55:11.004Z,63.09
2023-05-11T11:56:10.996Z,62.97
2023-05-11T11:57:10.968Z,62.63
2023-05-11T11:58:10.972Z,61.63
2023-05-11T11:59:10.978Z,63.08
2023-05-11T12:00:11.013Z,62.40
2023-05-11T12:01:10.950Z,62.32
2023-05-11T12:02:10.896Z,63.22
2023-05-11T12:03:10.952Z,71.90
2023-05-11T12:04:11.004Z,69.94
2023-05-11T12:05:10.901Z,64.84
2023-05-11T12:06:10.885Z,64.67
2023-05-11T12:07:10.876Z,61.49
2023-05-11T12:08:10.876Z,61.65
2023-05-11T12:09:10.854Z,62.84
2023-05-11T12:10:10.982Z,63.46
2023-05-11T12:11:10.804Z,62.39
2023-05-11T12:12:10.815Z,64.48
2023-05-11T12:13:10.813Z,63.65
2023-05-11T12:14:10.956Z,64.41
2023-05-11T12:15:10.754Z,60.94
2023-05-11T12:16:10.821Z,63.84
2023-05-11T12:17:10.781Z,61.20
2023-05-11T12:18:10.803Z,63.21
2023-05-11T12:19:10.807Z,60.23
2023-05-11T12:20:10.731Z,64.25
2023-05-11T12:21:10.700Z,62.27
2023-05-11T12:22:10.705Z,61.44
2023-05-11T12:23:10.683Z,64.37
2023-05-11T12:24:10.719Z,64.69
2023-05-11T12:25:10.667Z,61.20
2023-05-11T12:26:10.634Z,63.24
2023-05-11T12:27:10.635Z,63.49
2023-05-11T12:28:10.617Z,65.55
2023-05-11T12:29:10.640Z,62.95
2023-05-11T12:30:10.608Z,64.82
2023-05-11T12:31:10.592Z,61.63
2023-05-11T12:32:10.615Z,61.87
2023-05-11T12:33:10.620Z,60.93
2023-05-11T12:34:10.584Z,64.85
2023-05-11T12:35:10.543Z,59.99
2023-05-11T12:36:10.522Z,64.27
2023-05-11T12:37:10.541Z,62.91
2023-05-11T12:38:10.506Z,63.06
2023-05-11T12:39:10.493Z,63.13
2023-05-11T12:40:10.498Z,62.28
2023-05-11T12:41:10.466Z,62.86
2023-05-11T12:42:10.492Z,63.47
2023-05-11T12:43:10.497Z,62.42
2023-05-11T12:44:10.489Z,60.98
2023-05-11T12:45:10.439Z,60.46
2023-05-11T12:46:10.511Z,63.57
2023-05-11T12:47:10.445Z,62.65
2023-05-11T12:48:10.428Z,61.57
2023-05-11T12:49:10.408Z,62.15
2023-05-11T12:50:10.398Z,61.20
2023-05-11T12:51:10.370Z,61.78
2023-05-11T12:52:10.420Z,62.80